sensor_id;sensor_type;location;lat;lon;timestamp;pressure;altitude;pressure_sealevel;temperature
81657;BMP280;71067;51.482;-0.580;2023-11-22T00:00:16;102911.69;;;8.67
81657;BMP280;71067;51.482;-0.580;2023-11-22T00:02:41;102923.06;;;8.65
81657;BMP280;71067;51.482;-0.580;2023-11-22T00:05:07;102930.41;;;8.57
81657;BMP280;71067;51.482;-0.580;2023-11-22T00:07:32;102934.09;;;8.53
81657;BMP280;71067;51.482;-0.580;2023-11-22T00:09:58;102938.25;;;8.55
81657;BMP280;71067;51.482;-0.580;2023-11-22T00:12:23;102941.00;;;8.52
81657;BMP280;71067;51.482;-0.580;2023-11-22T00:14:50;102933.16;;;8.54
81657;BMP280;71067;51.482;-0.580;2023-11-22T00:17:15;102938.59;;;8.49
81657;BMP280;71067;51.482;-0.580;2023-11-22T00:19:45;102924.47;;;8.40
81657;BMP280;71067;51.482;-0.580;2023-11-22T00:22:11;102938.06;;;8.44
81657;BMP280;71067;51.482;-0.580;2023-11-22T00:24:41;102928.06;;;8.38
81657;BMP280;71067;51.482;-0.580;2023-11-22T00:27:07;102944.13;;;8.43
81657;BMP280;71067;51.482;-0.580;2023-11-22T00:29:33;102944.88;;;8.45
81657;BMP280;71067;51.482;-0.580;2023-11-22T00:31:58;102949.22;;;8.44
81657;BMP280;71067;51.482;-0.580;2023-11-22T00:34:26;102950.84;;;8.45
81657;BMP280;71067;51.482;-0.580;2023-11-22T00:36:52;102948.53;;;8.41
81657;BMP280;71067;51.482;-0.580;2023-11-22T00:39:17;102942.63;;;8.39
81657;BMP280;71067;51.482;-0.580;2023-11-22T00:41:43;102925.69;;;8.35
81657;BMP280;71067;51.482;-0.580;2023-11-22T00:44:09;102929.41;;;8.45
81657;BMP280;71067;51.482;-0.580;2023-11-22T00:46:35;102926.69;;;8.46
81657;BMP280;71067;51.482;-0.580;2023-11-22T00:49:01;102921.72;;;8.43
81657;BMP280;71067;51.482;-0.580;2023-11-22T00:51:26;102920.63;;;8.47
81657;BMP280;71067;51.482;-0.580;2023-11-22T00:53:52;102917.19;;;8.47
81657;BMP280;71067;51.482;-0.580;2023-11-22T00:56:17;102920.53;;;8.49
81657;BMP280;71067;51.482;-0.580;2023-11-22T00:58:42;102916.19;;;8.49
81657;BMP280;71067;51.482;-0.580;2023-11-22T01:01:08;102923.09;;;8.49
81657;BMP280;71067;51.482;-0.580;2023-11-22T01:03:33;102927.38;;;8.50
81657;BMP280;71067;51.482;-0.580;2023-11-22T01:06:00;102919.06;;;8.45
81657;BMP280;71067;51.482;-0.580;2023-11-22T01:08:25;102933.16;;;8.54
81657;BMP280;71067;51.482;-0.580;2023-11-22T01:10:50;102932.97;;;8.57
81657;BMP280;71067;51.482;-0.580;2023-11-22T01:13:16;102922.94;;;8.52
81657;BMP280;71067;51.482;-0.580;2023-11-22T01:15:41;102929.56;;;8.56
81657;BMP280;71067;51.482;-0.580;2023-11-22T01:18:07;102929.50;;;8.58
81657;BMP280;71067;51.482;-0.580;2023-11-22T01:20:32;102931.91;;;8.61
81657;BMP280;71067;51.482;-0.580;2023-11-22T01:22:57;102930.22;;;8.60
81657;BMP280;71067;51.482;-0.580;2023-11-22T01:25:23;102936.97;;;8.62
81657;BMP280;71067;51.482;-0.580;2023-11-22T01:27:49;102935.31;;;8.61
81657;BMP280;71067;51.482;-0.580;2023-11-22T01:30:14;102932.81;;;8.60
81657;BMP280;71067;51.482;-0.580;2023-11-22T01:32:40;102934.47;;;8.61
81657;BMP280;71067;51.482;-0.580;2023-11-22T01:35:05;102939.66;;;8.61
81657;BMP280;71067;51.482;-0.580;2023-11-22T01:37:31;102939.66;;;8.61
81657;BMP280;71067;51.482;-0.580;2023-11-22T01:39:57;102930.31;;;8.58
81657;BMP280;71067;51.482;-0.580;2023-11-22T01:42:24;102948.78;;;8.66
81657;BMP280;71067;51.482;-0.580;2023-11-22T01:44:51;102947.94;;;8.66
81657;BMP280;71067;51.482;-0.580;2023-11-22T01:47:18;102958.91;;;8.69
81657;BMP280;71067;51.482;-0.580;2023-11-22T01:49:44;102941.78;;;8.68
81657;BMP280;71067;51.482;-0.580;2023-11-22T01:52:09;102930.59;;;8.68
81657;BMP280;71067;51.482;-0.580;2023-11-22T01:54:35;102933.09;;;8.69
81657;BMP280;71067;51.482;-0.580;2023-11-22T01:57:02;102920.94;;;8.71
81657;BMP280;71067;51.482;-0.580;2023-11-22T01:59:29;102921.84;;;8.70
81657;BMP280;71067;51.482;-0.580;2023-11-22T02:01:54;102932.19;;;8.70
81657;BMP280;71067;51.482;-0.580;2023-11-22T02:04:20;102949.19;;;8.74
81657;BMP280;71067;51.482;-0.580;2023-11-22T02:06:46;102940.50;;;8.75
81657;BMP280;71067;51.482;-0.580;2023-11-22T02:09:11;102938.19;;;8.71
81657;BMP280;71067;51.482;-0.580;2023-11-22T02:11:41;102946.38;;;8.77
81657;BMP280;71067;51.482;-0.580;2023-11-22T02:14:07;102948.25;;;8.75
81657;BMP280;71067;51.482;-0.580;2023-11-22T02:16:33;102949.06;;;8.76
81657;BMP280;71067;51.482;-0.580;2023-11-22T02:19:00;102961.25;;;8.74
81657;BMP280;71067;51.482;-0.580;2023-11-22T02:21:26;102957.63;;;8.76
81657;BMP280;71067;51.482;-0.580;2023-11-22T02:23:52;102951.09;;;8.71
81657;BMP280;71067;51.482;-0.580;2023-11-22T02:26:17;102939.09;;;8.70
81657;BMP280;71067;51.482;-0.580;2023-11-22T02:28:44;102951.75;;;8.74
81657;BMP280;71067;51.482;-0.580;2023-11-22T02:31:09;102937.19;;;8.73
81657;BMP280;71067;51.482;-0.580;2023-11-22T02:33:34;102946.78;;;8.71
81657;BMP280;71067;51.482;-0.580;2023-11-22T02:36:01;102940.59;;;8.74
81657;BMP280;71067;51.482;-0.580;2023-11-22T02:38:27;102935.59;;;8.71
81657;BMP280;71067;51.482;-0.580;2023-11-22T02:40:53;102936.81;;;8.65
81657;BMP280;71067;51.482;-0.580;2023-11-22T02:43:19;102915.63;;;8.59
81657;BMP280;71067;51.482;-0.580;2023-11-22T02:45:44;102931.44;;;8.68
81657;BMP280;71067;51.482;-0.580;2023-11-22T02:48:10;102919.44;;;8.67
81657;BMP280;71067;51.482;-0.580;2023-11-22T02:50:35;102924.44;;;8.70
81657;BMP280;71067;51.482;-0.580;2023-11-22T02:53:02;102939.19;;;8.68
81657;BMP280;71067;51.482;-0.580;2023-11-22T02:55:28;102948.78;;;8.66
81657;BMP280;71067;51.482;-0.580;2023-11-22T02:57:54;102947.13;;;8.65
81657;BMP280;71067;51.482;-0.580;2023-11-22T03:00:19;102940.72;;;8.57
81657;BMP280;71067;51.482;-0.580;2023-11-22T03:02:48;102944.88;;;8.59
81657;BMP280;71067;51.482;-0.580;2023-11-22T03:05:19;102950.16;;;8.58
81657;BMP280;71067;51.482;-0.580;2023-11-22T03:07:45;102949.50;;;8.54
81657;BMP280;71067;51.482;-0.580;2023-11-22T03:10:10;102933.28;;;8.52
81657;BMP280;71067;51.482;-0.580;2023-11-22T03:12:36;102936.69;;;8.53
81657;BMP280;71067;51.482;-0.580;2023-11-22T03:15:01;102931.69;;;8.49
81657;BMP280;71067;51.482;-0.580;2023-11-22T03:17:30;102930.31;;;8.44
81657;BMP280;71067;51.482;-0.580;2023-11-22T03:19:55;102920.97;;;8.41
81657;BMP280;71067;51.482;-0.580;2023-11-22T03:22:25;102939.41;;;8.35
81657;BMP280;71067;51.482;-0.580;2023-11-22T03:24:50;102942.72;;;8.37
81657;BMP280;71067;51.482;-0.580;2023-11-22T03:27:16;102930.09;;;8.33
81657;BMP280;71067;51.482;-0.580;2023-11-22T03:29:41;102935.34;;;8.31
81657;BMP280;71067;51.482;-0.580;2023-11-22T03:32:07;102948.25;;;8.31
81657;BMP280;71067;51.482;-0.580;2023-11-22T03:34:32;102956.06;;;8.30
81657;BMP280;71067;51.482;-0.580;2023-11-22T03:36:58;102961.41;;;8.27
81657;BMP280;71067;51.482;-0.580;2023-11-22T03:39:23;102970.03;;;8.26
81657;BMP280;71067;51.482;-0.580;2023-11-22T03:41:48;102982.41;;;8.21
81657;BMP280;71067;51.482;-0.580;2023-11-22T03:44:16;102978.13;;;8.20
81657;BMP280;71067;51.482;-0.580;2023-11-22T03:46:41;102977.56;;;8.15
81657;BMP280;71067;51.482;-0.580;2023-11-22T03:49:06;102962.59;;;8.06
81657;BMP280;71067;51.482;-0.580;2023-11-22T03:51:32;102986.41;;;8.11
81657;BMP280;71067;51.482;-0.580;2023-11-22T03:53:58;102984.00;;;8.08
81657;BMP280;71067;51.482;-0.580;2023-11-22T03:56:24;102990.34;;;8.02
81657;BMP280;71067;51.482;-0.580;2023-11-22T03:58:50;102984.59;;;7.97
81657;BMP280;71067;51.482;-0.580;2023-11-22T04:01:15;102979.44;;;7.97
81657;BMP280;71067;51.482;-0.580;2023-11-22T04:03:45;102966.44;;;7.99
81657;BMP280;71067;51.482;-0.580;2023-11-22T04:06:11;102968.44;;;7.94
81657;BMP280;71067;51.482;-0.580;2023-11-22T04:08:36;102963.94;;;7.97
81657;BMP280;71067;51.482;-0.580;2023-11-22T04:11:03;102971.03;;;7.94
81657;BMP280;71067;51.482;-0.580;2023-11-22T04:13:29;102980.25;;;7.98
81657;BMP280;71067;51.482;-0.580;2023-11-22T04:15:55;102981.91;;;7.99
81657;BMP280;71067;51.482;-0.580;2023-11-22T04:18:20;102982.09;;;7.96
81657;BMP280;71067;51.482;-0.580;2023-11-22T04:20:45;102978.69;;;7.95
81657;BMP280;71067;51.482;-0.580;2023-11-22T04:23:11;102983.09;;;7.93
81657;BMP280;71067;51.482;-0.580;2023-11-22T04:25:39;102978.59;;;7.97
81657;BMP280;71067;51.482;-0.580;2023-11-22T04:28:04;102975.44;;;7.92
81657;BMP280;71067;51.482;-0.580;2023-11-22T04:30:29;102983.94;;;7.94
81657;BMP280;71067;51.482;-0.580;2023-11-22T04:32:54;102981.25;;;7.95
81657;BMP280;71067;51.482;-0.580;2023-11-22T04:35:20;102979.69;;;7.93
81657;BMP280;71067;51.482;-0.580;2023-11-22T04:37:45;102977.94;;;7.93
81657;BMP280;71067;51.482;-0.580;2023-11-22T04:40:12;102973.63;;;7.94
81657;BMP280;71067;51.482;-0.580;2023-11-22T04:42:39;102960.72;;;7.94
81657;BMP280;71067;51.482;-0.580;2023-11-22T04:45:05;102970.09;;;7.95
81657;BMP280;71067;51.482;-0.580;2023-11-22T04:47:31;102979.84;;;7.90
81657;BMP280;71067;51.482;-0.580;2023-11-22T04:49:56;102980.00;;;7.87
81657;BMP280;71067;51.482;-0.580;2023-11-22T04:52:22;102984.72;;;7.94
81657;BMP280;71067;51.482;-0.580;2023-11-22T04:54:47;102974.69;;;7.90
81657;BMP280;71067;51.482;-0.580;2023-11-22T04:57:13;102990.63;;;7.96
81657;BMP280;71067;51.482;-0.580;2023-11-22T04:59:38;102983.75;;;7.97
81657;BMP280;71067;51.482;-0.580;2023-11-22T05:02:03;102977.84;;;7.95
81657;BMP280;71067;51.482;-0.580;2023-11-22T05:04:29;102973.63;;;7.94
81657;BMP280;71067;51.482;-0.580;2023-11-22T05:06:54;102977.28;;;7.90
81657;BMP280;71067;51.482;-0.580;2023-11-22T05:09:19;102977.19;;;7.91
81657;BMP280;71067;51.482;-0.580;2023-11-22T05:11:45;102991.81;;;7.91
81657;BMP280;71067;51.482;-0.580;2023-11-22T05:14:11;102992.66;;;7.91
81657;BMP280;71067;51.482;-0.580;2023-11-22T05:16:36;102981.69;;;7.88
81657;BMP280;71067;51.482;-0.580;2023-11-22T05:19:01;102974.84;;;7.87
81657;BMP280;71067;51.482;-0.580;2023-11-22T05:21:27;102970.28;;;7.92
81657;BMP280;71067;51.482;-0.580;2023-11-22T05:23:52;102979.84;;;7.90
81657;BMP280;71067;51.482;-0.580;2023-11-22T05:26:20;102992.06;;;7.86
81657;BMP280;71067;51.482;-0.580;2023-11-22T05:28:45;102986.44;;;7.80
81657;BMP280;71067;51.482;-0.580;2023-11-22T05:31:12;102986.06;;;7.86
81657;BMP280;71067;51.482;-0.580;2023-11-22T05:33:38;102992.91;;;7.87
81657;BMP280;71067;51.482;-0.580;2023-11-22T05:36:05;102984.75;;;7.79
81657;BMP280;71067;51.482;-0.580;2023-11-22T05:38:30;102990.47;;;7.84
81657;BMP280;71067;51.482;-0.580;2023-11-22T05:40:56;102994.03;;;7.83
81657;BMP280;71067;51.482;-0.580;2023-11-22T05:43:21;102977.91;;;7.78
81657;BMP280;71067;51.482;-0.580;2023-11-22T05:45:51;102976.13;;;7.80
81657;BMP280;71067;51.482;-0.580;2023-11-22T05:48:16;102963.38;;;7.77
81657;BMP280;71067;51.482;-0.580;2023-11-22T05:50:41;102961.47;;;7.80
81657;BMP280;71067;51.482;-0.580;2023-11-22T05:53:07;102967.47;;;7.81
81657;BMP280;71067;51.482;-0.580;2023-11-22T05:55:33;102959.81;;;7.79
81657;BMP280;71067;51.482;-0.580;2023-11-22T05:57:59;102957.13;;;7.81
81657;BMP280;71067;51.482;-0.580;2023-11-22T06:00:24;102956.31;;;7.80
81657;BMP280;71067;51.482;-0.580;2023-11-22T06:02:51;102957.47;;;7.75
81657;BMP280;71067;51.482;-0.580;2023-11-22T06:05:17;102957.97;;;7.65
81657;BMP280;71067;51.482;-0.580;2023-11-22T06:07:42;102968.28;;;7.65
81657;BMP280;71067;51.482;-0.580;2023-11-22T06:10:08;102970.03;;;7.65
81657;BMP280;71067;51.482;-0.580;2023-11-22T06:12:33;102967.38;;;7.66
81657;BMP280;71067;51.482;-0.580;2023-11-22T06:14:58;102955.81;;;7.58
81657;BMP280;71067;51.482;-0.580;2023-11-22T06:17:23;102965.97;;;7.61
81657;BMP280;71067;51.482;-0.580;2023-11-22T06:19:49;102968.63;;;7.59
81657;BMP280;71067;51.482;-0.580;2023-11-22T06:22:14;102967.59;;;7.62
81657;BMP280;71067;51.482;-0.580;2023-11-22T06:24:41;102964.31;;;7.60
81657;BMP280;71067;51.482;-0.580;2023-11-22T06:27:06;102961.53;;;7.63
81657;BMP280;71067;51.482;-0.580;2023-11-22T06:29:32;102953.91;;;7.61
81657;BMP280;71067;51.482;-0.580;2023-11-22T06:31:57;102955.53;;;7.62
81657;BMP280;71067;51.482;-0.580;2023-11-22T06:34:23;102950.38;;;7.62
81657;BMP280;71067;51.482;-0.580;2023-11-22T06:36:48;102965.00;;;7.62
81657;BMP280;71067;51.482;-0.580;2023-11-22T06:39:13;102955.53;;;7.62
81657;BMP280;71067;51.482;-0.580;2023-11-22T06:41:42;102966.53;;;7.66
81657;BMP280;71067;51.482;-0.580;2023-11-22T06:44:08;102954.63;;;7.63
81657;BMP280;71067;51.482;-0.580;2023-11-22T06:46:34;102958.56;;;7.71
81657;BMP280;71067;51.482;-0.580;2023-11-22T06:49:00;102949.34;;;7.66
81657;BMP280;71067;51.482;-0.580;2023-11-22T06:51:25;102952.91;;;7.64
81657;BMP280;71067;51.482;-0.580;2023-11-22T06:53:51;102955.34;;;7.67
81657;BMP280;71067;51.482;-0.580;2023-11-22T06:56:19;102948.50;;;7.66
81657;BMP280;71067;51.482;-0.580;2023-11-22T06:58:45;102963.88;;;7.67
81657;BMP280;71067;51.482;-0.580;2023-11-22T07:01:10;102972.38;;;7.70
81657;BMP280;71067;51.482;-0.580;2023-11-22T07:03:36;102980.19;;;7.68
81657;BMP280;71067;51.482;-0.580;2023-11-22T07:06:03;102997.06;;;7.74
81657;BMP280;71067;51.482;-0.580;2023-11-22T07:08:29;103010.63;;;7.77
81657;BMP280;71067;51.482;-0.580;2023-11-22T07:10:55;102992.03;;;7.72
81657;BMP280;71067;51.482;-0.580;2023-11-22T07:13:22;102992.59;;;7.77
81657;BMP280;71067;51.482;-0.580;2023-11-22T07:15:47;102967.97;;;7.72
81657;BMP280;71067;51.482;-0.580;2023-11-22T07:18:13;102997.38;;;7.83
81657;BMP280;71067;51.482;-0.580;2023-11-22T07:20:39;102996.59;;;7.83
81657;BMP280;71067;51.482;-0.580;2023-11-22T07:23:05;102995.91;;;7.79
81657;BMP280;71067;51.482;-0.580;2023-11-22T07:25:30;102996.06;;;7.76
81657;BMP280;71067;51.482;-0.580;2023-11-22T07:27:57;103002.72;;;7.80
81657;BMP280;71067;51.482;-0.580;2023-11-22T07:30:22;102989.00;;;7.80
81657;BMP280;71067;51.482;-0.580;2023-11-22T07:32:50;102978.53;;;7.67
81657;BMP280;71067;51.482;-0.580;2023-11-22T07:35:15;102989.91;;;7.79
81657;BMP280;71067;51.482;-0.580;2023-11-22T07:37:41;102994.19;;;7.80
81657;BMP280;71067;51.482;-0.580;2023-11-22T07:40:09;102996.75;;;7.80
81657;BMP280;71067;51.482;-0.580;2023-11-22T07:42:37;103003.78;;;7.76
81657;BMP280;71067;51.482;-0.580;2023-11-22T07:45:03;103009.84;;;7.75
81657;BMP280;71067;51.482;-0.580;2023-11-22T07:47:28;103012.22;;;7.80
81657;BMP280;71067;51.482;-0.580;2023-11-22T07:49:54;103040.16;;;7.87
81657;BMP280;71067;51.482;-0.580;2023-11-22T07:52:23;103033.28;;;7.88
81657;BMP280;71067;51.482;-0.580;2023-11-22T07:54:56;103034.00;;;7.90
81657;BMP280;71067;51.482;-0.580;2023-11-22T07:57:21;103026.84;;;7.95
81657;BMP280;71067;51.482;-0.580;2023-11-22T07:59:48;103020.78;;;7.96
81657;BMP280;71067;51.482;-0.580;2023-11-22T08:02:13;103020.13;;;7.92
81657;BMP280;71067;51.482;-0.580;2023-11-22T08:04:38;103044.00;;;7.96
81657;BMP280;71067;51.482;-0.580;2023-11-22T08:07:05;103049.91;;;7.98
81657;BMP280;71067;51.482;-0.580;2023-11-22T08:09:30;103045.50;;;8.00
81657;BMP280;71067;51.482;-0.580;2023-11-22T08:11:58;103030.75;;;8.02
81657;BMP280;71067;51.482;-0.580;2023-11-22T08:14:23;103042.56;;;8.06
81657;BMP280;71067;51.482;-0.580;2023-11-22T08:16:50;103024.72;;;8.03
81657;BMP280;71067;51.482;-0.580;2023-11-22T08:19:16;103021.09;;;8.05
81657;BMP280;71067;51.482;-0.580;2023-11-22T08:21:41;103011.22;;;7.98
81657;BMP280;71067;51.482;-0.580;2023-11-22T08:24:07;103037.06;;;8.12
81657;BMP280;71067;51.482;-0.580;2023-11-22T08:26:33;103026.69;;;8.13
81657;BMP280;71067;51.482;-0.580;2023-11-22T08:28:58;103043.03;;;8.14
81657;BMP280;71067;51.482;-0.580;2023-11-22T08:31:23;103038.47;;;8.17
81657;BMP280;71067;51.482;-0.580;2023-11-22T08:33:49;103031.50;;;8.19
81657;BMP280;71067;51.482;-0.580;2023-11-22T08:36:17;103036.59;;;8.21
81657;BMP280;71067;51.482;-0.580;2023-11-22T08:38:43;103015.25;;;8.17
81657;BMP280;71067;51.482;-0.580;2023-11-22T08:41:10;103015.03;;;8.22
81657;BMP280;71067;51.482;-0.580;2023-11-22T08:43:39;103019.91;;;8.26
81657;BMP280;71067;51.482;-0.580;2023-11-22T08:46:04;103014.59;;;8.29
81657;BMP280;71067;51.482;-0.580;2023-11-22T08:48:31;103025.66;;;8.31
81657;BMP280;71067;51.482;-0.580;2023-11-22T08:50:57;103026.34;;;8.35
81657;BMP280;71067;51.482;-0.580;2023-11-22T08:53:23;103028.41;;;8.44
81657;BMP280;71067;51.482;-0.580;2023-11-22T08:55:49;103018.72;;;8.47
81657;BMP280;71067;51.482;-0.580;2023-11-22T08:58:14;103022.78;;;8.52
81657;BMP280;71067;51.482;-0.580;2023-11-22T09:00:43;103016.28;;;8.60
81657;BMP280;71067;51.482;-0.580;2023-11-22T09:03:10;103016.84;;;8.65
81657;BMP280;71067;51.482;-0.580;2023-11-22T09:05:39;103012.22;;;8.70
81657;BMP280;71067;51.482;-0.580;2023-11-22T09:08:04;103006.72;;;8.76
81657;BMP280;71067;51.482;-0.580;2023-11-22T09:10:30;103003.97;;;8.79
81657;BMP280;71067;51.482;-0.580;2023-11-22T09:12:55;103009.72;;;8.84
81657;BMP280;71067;51.482;-0.580;2023-11-22T09:15:22;103012.28;;;8.84
81657;BMP280;71067;51.482;-0.580;2023-11-22T09:17:51;103003.25;;;8.91
81657;BMP280;71067;51.482;-0.580;2023-11-22T09:20:19;103003.91;;;8.95
81657;BMP280;71067;51.482;-0.580;2023-11-22T09:22:49;103001.09;;;8.98
81657;BMP280;71067;51.482;-0.580;2023-11-22T09:25:18;102994.03;;;9.01
81657;BMP280;71067;51.482;-0.580;2023-11-22T09:27:47;102968.81;;;8.91
81657;BMP280;71067;51.482;-0.580;2023-11-22T09:30:15;102980.56;;;9.10
81657;BMP280;71067;51.482;-0.580;2023-11-22T09:32:57;102980.16;;;9.16
81657;BMP280;71067;51.482;-0.580;2023-11-22T09:35:23;102979.44;;;9.14
81657;BMP280;71067;51.482;-0.580;2023-11-22T09:37:48;102977.34;;;9.21
81657;BMP280;71067;51.482;-0.580;2023-11-22T09:40:17;102966.69;;;9.25
81657;BMP280;71067;51.482;-0.580;2023-11-22T09:42:44;102965.59;;;9.29
81657;BMP280;71067;51.482;-0.580;2023-11-22T09:45:11;102967.25;;;9.30
81657;BMP280;71067;51.482;-0.580;2023-11-22T09:47:37;102965.38;;;9.32
81657;BMP280;71067;51.482;-0.580;2023-11-22T09:50:03;102970.09;;;9.40
81657;BMP280;71067;51.482;-0.580;2023-11-22T09:52:33;102989.03;;;9.41
81657;BMP280;71067;51.482;-0.580;2023-11-22T09:55:02;102982.38;;;9.37
81657;BMP280;71067;51.482;-0.580;2023-11-22T09:57:29;102979.41;;;9.43
81657;BMP280;71067;51.482;-0.580;2023-11-22T09:59:55;102983.38;;;9.48
81657;BMP280;71067;51.482;-0.580;2023-11-22T10:02:22;102982.09;;;9.55
81657;BMP280;71067;51.482;-0.580;2023-11-22T10:04:52;102979.50;;;9.55
81657;BMP280;71067;51.482;-0.580;2023-11-22T10:07:17;102980.66;;;9.64
81657;BMP280;71067;51.482;-0.580;2023-11-22T10:09:42;102980.28;;;9.70
81657;BMP280;71067;51.482;-0.580;2023-11-22T10:12:12;102979.38;;;9.71
81657;BMP280;71067;51.482;-0.580;2023-11-22T10:14:37;102973.19;;;9.73
81657;BMP280;71067;51.482;-0.580;2023-11-22T10:17:03;102969.56;;;9.76
81657;BMP280;71067;51.482;-0.580;2023-11-22T10:19:30;102971.00;;;9.80
81657;BMP280;71067;51.482;-0.580;2023-11-22T10:22:07;102981.19;;;9.83
81657;BMP280;71067;51.482;-0.580;2023-11-22T10:24:33;102987.06;;;9.85
81657;BMP280;71067;51.482;-0.580;2023-11-22T10:26:59;102998.56;;;9.81
81657;BMP280;71067;51.482;-0.580;2023-11-22T10:29:25;102992.38;;;9.83
81657;BMP280;71067;51.482;-0.580;2023-11-22T10:31:51;102979.09;;;9.88
81657;BMP280;71067;51.482;-0.580;2023-11-22T10:34:19;102976.53;;;9.88
81657;BMP280;71067;51.482;-0.580;2023-11-22T10:36:46;102976.41;;;9.89
81657;BMP280;71067;51.482;-0.580;2023-11-22T10:39:12;102971.78;;;9.94
81657;BMP280;71067;51.482;-0.580;2023-11-22T10:41:41;102978.53;;;9.97
81657;BMP280;71067;51.482;-0.580;2023-11-22T10:44:08;102985.53;;;9.95
81657;BMP280;71067;51.482;-0.580;2023-11-22T10:46:33;102977.69;;;9.96
81657;BMP280;71067;51.482;-0.580;2023-11-22T10:48:58;102975.44;;;10.04
81657;BMP280;71067;51.482;-0.580;2023-11-22T10:51:27;102969.44;;;10.04
81657;BMP280;71067;51.482;-0.580;2023-11-22T10:53:55;102963.13;;;10.08
81657;BMP280;71067;51.482;-0.580;2023-11-22T10:56:22;102947.31;;;10.12
81657;BMP280;71067;51.482;-0.580;2023-11-22T10:58:56;102944.31;;;10.18
81657;BMP280;71067;51.482;-0.580;2023-11-22T11:01:24;102935.75;;;10.18
81657;BMP280;71067;51.482;-0.580;2023-11-22T11:04:01;102955.19;;;10.24
81657;BMP280;71067;51.482;-0.580;2023-11-22T11:06:32;102947.84;;;10.18
81657;BMP280;71067;51.482;-0.580;2023-11-22T11:09:00;102961.38;;;10.21
81657;BMP280;71067;51.482;-0.580;2023-11-22T11:11:31;102947.84;;;10.18
81657;BMP280;71067;51.482;-0.580;2023-11-22T11:13:57;102942.75;;;10.29
81657;BMP280;71067;51.482;-0.580;2023-11-22T11:16:23;102953.94;;;10.29
81657;BMP280;71067;51.482;-0.580;2023-11-22T11:18:50;102946.50;;;10.25
81657;BMP280;71067;51.482;-0.580;2023-11-22T11:21:16;102950.44;;;10.30
81657;BMP280;71067;51.482;-0.580;2023-11-22T11:23:41;102939.78;;;10.35
81657;BMP280;71067;51.482;-0.580;2023-11-22T11:26:18;102943.00;;;10.38
81657;BMP280;71067;51.482;-0.580;2023-11-22T11:28:45;102936.78;;;10.41
81657;BMP280;71067;51.482;-0.580;2023-11-22T11:31:13;102930.66;;;10.42
81657;BMP280;71067;51.482;-0.580;2023-11-22T11:38:48;102901.13;;;10.44
81657;BMP280;71067;51.482;-0.580;2023-11-22T11:41:14;102901.97;;;10.45
81657;BMP280;71067;51.482;-0.580;2023-11-22T11:43:47;102897.63;;;10.45
81657;BMP280;71067;51.482;-0.580;2023-11-22T11:46:15;102888.16;;;10.44
81657;BMP280;71067;51.482;-0.580;2023-11-22T11:48:58;102879.72;;;10.42
81657;BMP280;71067;51.482;-0.580;2023-11-22T11:51:26;102861.88;;;10.38
81657;BMP280;71067;51.482;-0.580;2023-11-22T11:53:53;102865.91;;;10.42
81657;BMP280;71067;51.482;-0.580;2023-11-22T11:56:19;102851.84;;;10.46
81657;BMP280;71067;51.482;-0.580;2023-11-22T11:58:46;102820.75;;;10.46
81657;BMP280;71067;51.482;-0.580;2023-11-22T12:01:13;102809.56;;;10.45
81657;BMP280;71067;51.482;-0.580;2023-11-22T12:03:39;102806.78;;;10.48
81657;BMP280;71067;51.482;-0.580;2023-11-22T12:06:05;102811.84;;;10.50
81657;BMP280;71067;51.482;-0.580;2023-11-22T12:08:31;102843.34;;;10.56
81657;BMP280;71067;51.482;-0.580;2023-11-22T12:11:02;102845.44;;;10.51
81657;BMP280;71067;51.482;-0.580;2023-11-22T12:13:29;102846.84;;;10.55
81657;BMP280;71067;51.482;-0.580;2023-11-22T12:15:55;102871.81;;;10.56
81657;BMP280;71067;51.482;-0.580;2023-11-22T12:18:22;102878.75;;;10.56
81657;BMP280;71067;51.482;-0.580;2023-11-22T12:20:54;102856.09;;;10.59
81657;BMP280;71067;51.482;-0.580;2023-11-22T12:23:21;102854.91;;;10.63
81657;BMP280;71067;51.482;-0.580;2023-11-22T12:25:47;102865.28;;;10.63
81657;BMP280;71067;51.482;-0.580;2023-11-22T12:28:16;102859.53;;;10.60
81657;BMP280;71067;51.482;-0.580;2023-11-22T12:30:42;102869.19;;;10.69
81657;BMP280;71067;51.482;-0.580;2023-11-22T12:33:09;102862.69;;;10.63
81657;BMP280;71067;51.482;-0.580;2023-11-22T12:35:35;102853.16;;;10.64
81657;BMP280;71067;51.482;-0.580;2023-11-22T12:38:05;102854.09;;;10.75
81657;BMP280;71067;51.482;-0.580;2023-11-22T12:40:34;102835.31;;;10.72
81657;BMP280;71067;51.482;-0.580;2023-11-22T12:43:00;102821.94;;;10.78
81657;BMP280;71067;51.482;-0.580;2023-11-22T12:45:27;102818.88;;;10.84
81657;BMP280;71067;51.482;-0.580;2023-11-22T12:47:54;102801.19;;;10.90
81657;BMP280;71067;51.482;-0.580;2023-11-22T12:50:31;102780.09;;;10.95
81657;BMP280;71067;51.482;-0.580;2023-11-22T12:53:07;102791.28;;;10.95
81657;BMP280;71067;51.482;-0.580;2023-11-22T12:55:33;102778.41;;;10.83
81657;BMP280;71067;51.482;-0.580;2023-11-22T12:57:59;102778.34;;;10.95
81657;BMP280;71067;51.482;-0.580;2023-11-22T13:00:26;102789.47;;;11.08
81657;BMP280;71067;51.482;-0.580;2023-11-22T13:02:54;102787.38;;;11.14
81657;BMP280;71067;51.482;-0.580;2023-11-22T13:05:20;102766.97;;;11.09
81657;BMP280;71067;51.482;-0.580;2023-11-22T13:07:46;102771.13;;;11.23
81657;BMP280;71067;51.482;-0.580;2023-11-22T13:10:12;102770.91;;;11.26
81657;BMP280;71067;51.482;-0.580;2023-11-22T13:12:42;102749.00;;;11.30
81657;BMP280;71067;51.482;-0.580;2023-11-22T13:15:12;102746.91;;;11.35
81657;BMP280;71067;51.482;-0.580;2023-11-22T13:17:38;102756.81;;;11.41
81657;BMP280;71067;51.482;-0.580;2023-11-22T13:20:08;102755.72;;;11.32
81657;BMP280;71067;51.482;-0.580;2023-11-22T13:22:42;102771.66;;;11.39
81657;BMP280;71067;51.482;-0.580;2023-11-22T13:25:11;102785.13;;;11.44
81657;BMP280;71067;51.482;-0.580;2023-11-22T13:27:38;102800.09;;;11.40
81657;BMP280;71067;51.482;-0.580;2023-11-22T13:30:04;102798.34;;;11.41
81657;BMP280;71067;51.482;-0.580;2023-11-22T13:32:30;102785.81;;;11.35
81657;BMP280;71067;51.482;-0.580;2023-11-22T13:34:56;102780.50;;;11.36
81657;BMP280;71067;51.482;-0.580;2023-11-22T13:37:23;102761.41;;;11.37
81657;BMP280;71067;51.482;-0.580;2023-11-22T13:39:49;102767.28;;;11.39
81657;BMP280;71067;51.482;-0.580;2023-11-22T13:42:14;102763.59;;;11.31
81657;BMP280;71067;51.482;-0.580;2023-11-22T13:44:39;102763.25;;;11.24
81657;BMP280;71067;51.482;-0.580;2023-11-22T13:47:06;102777.41;;;11.31
81657;BMP280;71067;51.482;-0.580;2023-11-22T13:49:33;102777.41;;;11.31
81657;BMP280;71067;51.482;-0.580;2023-11-22T13:51:59;102777.31;;;11.33
81657;BMP280;71067;51.482;-0.580;2023-11-22T13:54:24;102775.19;;;11.38